AirNav  
 
 1400 users online  

3CA6 Trizec 5670 Wilshire LLC Heliport
Los Angeles, California, USA

GOING TO LOS ANGELES?


FAA INFORMATION EFFECTIVE 25 MARCH 2021

Location

FAA Identifier: 3CA6
Lat/Long: 34-03-42.9600N 118-21-06.8200W
34-03.716000N 118-21.113667W
34.0619333,-118.3518944
(estimated)
Elevation: 559 ft. / 170.4 m (surveyed)
Variation: 14E (1985)
From city: 5 miles W of LOS ANGELES, CA
Time zone: UTC -7 (UTC -8 during Standard Time)
Zip code: 90036

Heliport Operations

Heliport use: Private use. Permission required prior to landing
Activation date: 01/1965
Control tower: no
ARTCC: LOS ANGELES CENTER
FSS: HAWTHORNE FLIGHT SERVICE STATION
Attendance: MON-FRI 0700-1900
Wind indicator: yes
Segmented circle: no
Lights: FOR PERI LGTS CALL 213-857-5546.

Heliport Communications

UNICOM: 123.05
WX ASOS at SMO (6 nm SW): PHONE 310-392-6453
WX ASOS at LAX (8 nm S): PHONE 310-568-1486
WX ASOS at BUR (8 nm N): PHONE 818-841-1384
WX ASOS at HHR (8 nm S): PHONE 310-973-8930
WX ASOS at VNY (11 nm NW): PHONE 818-904-9213
WX AWOS-3PT at CPM (12 nm SE): 127.150 (310-631-4958)
WX AWOS-3PT at WHP (12 nm N): 132.1 (818-899-9820)
WX AWOS-3PT at EMT (16 nm E): 118.75 ((626) 444-1107)
WX ASOS at LGB (18 nm SE): PHONE 562-424-0572

Nearby radio navigation aids

VOR radial/distance  VOR name  Freq  Var
SMOr044/6.1SANTA MONICA VOR/DME110.8015E
LAXr012/8.7LOS ANGELES VORTAC113.6015E
VNYr129/11.9VAN NUYS VOR/DME113.1015E
SLIr303/22.3SEAL BEACH VORTAC115.7015E
POMr253/28.1POMONA VORTAC110.4015E
FIMr109/31.7FILLMORE VORTAC112.5015E
VTUr080/34.8VENTURA VOR/DME108.2015E
PMDr188/37.0PALMDALE VORTAC114.5015E
CMAr089/38.0CAMARILLO VOR/DME115.8015E
ELBr293/38.6EL TORO VOR/DME117.2014E
LHSr148/38.9LAKE HUGHES VORTAC114.3515E

Heliport Services

Airframe service: NONE
Powerplant service: NONE

Runway Information

Helipad H1

Dimensions: 65 x 65 ft. / 20 x 20 m
Surface: concrete
Weight bearing capacity: 
Single wheel: 12.0
Runway edge lights: PERI
Latitude: 34-03.716000N
Longitude: 118-21.113667W
Elevation: 559.0 ft.
Traffic pattern: leftleft

Heliport Ownership and Management from official FAA records

Ownership: Privately-owned
Owner: TRIZEC 5670 WILSHIRE, LLC
5670 WILSHIRE BLVD
LOS ANGELES, CA 90036
Phone (323) 677-5061
Manager: NATALIE WADE, EQUITY OFFICE
5670 WILSHIRE BLVD
LOS ANGELES, CA 90036
Phone (323) 677-5061
NATALIE.WADE@EQUITYOFFICE.COM

Additional Remarks

FOR CD CTC LOS ANGELES ARTCC AT 661-575-2079.

Instrument Procedures

There are no published instrument procedures at 3CA6.

Some nearby airports with instrument procedures:

KSMO - Santa Monica Municipal Airport (6 nm SW)
KLAX - Los Angeles International Airport (8 nm S)
KBUR - Bob Hope Airport (8 nm N)
KHHR - Jack Northrop Field/Hawthorne Municipal Airport (8 nm S)
KVNY - Van Nuys Airport (11 nm NW)
KWHP - Whiteman Airport (12 nm N)
KTOA - Zamperini Field Airport (16 nm S)
KEMT - San Gabriel Valley Airport (16 nm E)
KLGB - Long Beach Airport (Daugherty Field) (18 nm SE)
 
Loc | Ops | Rwys | IFR | FBO | Links
Com | Nav | Svcs | Stats | Notes
Area around 3CA6 (Trizec 5670 Wilshire LLC Heliport)
 
Road maps at: MapQuest Bing Google
 
Aerial photo
No photo
 
Sectional chart

 
Airport distance calculator
Flying to Trizec 5670 Wilshire LLC Heliport? Find the distance to fly.

From to 3CA6

Sunrise and sunset
Times for 12-Apr-2021
 Local
(UTC-7)
 Zulu
(UTC)
Morning civil twilight06:0213:02
Sunrise06:2713:27
Sunset19:2102:21
Evening civil twilight19:4702:47

Current date and time
Zulu (UTC)  12-Apr-2021 21:28:01
Local (UTC-7)  12-Apr-2021 14:28:01
 
METAR
KSMO 
6nm SW 
122051Z 25009KT 10SM SCT032 17/09 A2985 RMK AO2 SLP107 T01720094 58002
KCQT 
6nm E 
122052Z AUTO 00000KT 10SM OVC030 19/10 A2983 RMK AO2 SLP100 T01940100 58003 $
KLAX 
8nm S 
122053Z 23010KT 8SM FEW020 SCT030 18/10 A2985 RMK AO2 SLP108 T01780100 58002
KBUR 
8nm N 
122053Z VRB05KT 10SM FEW036 19/09 A2982 RMK AO2 SLP089 T01940089 50006 $
KHHR 
9nm S 
122053Z 22007KT 10SM OVC029 17/10 A2985 RMK AO2 SLP108 T01720100 56006
KVNY 
11nm NW 
122051Z 12007KT 10SM FEW040 22/10 A2981 RMK AO2 SLP089 T02170100 58005
KWHP 
12nm N 
122050Z 10006KT 10SM SKC 19/09 A2985
KEMT 
17nm E 
122045Z 20007KT 10SM SCT037 20/11 A2984 RMK CRANE 1.3NM SSE EMT AT OR BELOW 300AGL
KTOA 
17nm S 
122047Z 20007KT 8SM FEW020 BKN030 19/11 A2985
KLGB 
18nm SE 
122053Z 20009KT 10SM OVC030 18/11 A2985 RMK AO2 SLP107 T01780106 58003
TAF
KSMO 
6nm SW 
121733Z 1218/1318 VRB03KT P6SM BKN025 FM122000 24010KT P6SM FEW025 FM130300 VRB03KT P6SM OVC018 FM131000 VRB03KT P6SM OVC025
KLAX 
8nm S 
121733Z 1218/1324 24006KT P6SM SCT015 BKN025 FM122100 26012KT P6SM SCT025 FM130200 26007KT P6SM OVC018 FM131000 VRB03KT P6SM OVC025 FM131900 26010KT P6SM SCT025 OVC035
KBUR 
8nm N 
121733Z 1218/1318 VRB03KT P6SM SKC FM122100 17008KT P6SM SKC FM130300 VRB03KT P6SM SKC FM130700 VRB03KT P6SM OVC015 FM131400 VRB03KT P6SM SCT015 OVC025
KVNY 
11nm NW 
121733Z 1218/1318 VRB03KT P6SM SKC FM122100 14008KT P6SM SKC FM130300 VRB03KT P6SM SKC FM130700 VRB03KT P6SM OVC015 FM131400 VRB03KT P6SM SCT015 OVC025
KLGB 
18nm SE 
122005Z 1220/1318 19007KT P6SM BKN025 FM122130 20008KT P6SM SKC FM130400 VRB03KT P6SM OVC018 FM131000 VRB03KT P6SM OVC025
NOTAMs
Click for the latest NOTAMs
NOTAMs are issued by the DoD/FAA and will open in a separate window not controlled by AirNav.

 

 
 

Would you like to see your business listed on this page?

 If your business provides an interesting product or service to pilots, flight crews, aircraft, or users of the Trizec 5670 Wilshire LLC Heliport, you should consider listing it here.  To start the listing process, click on the button below
 
Add a business
 

Other Pages about Trizec 5670 Wilshire LLC Heliport

Update a link
 
Copyright © AirNav, LLC. All rights reserved. Privacy Policy  Contact